America — WDE6076 — position and weather

sailwx.info

Track history (hours):
 
Tides and Currents Weather Stations Pressure Air Temp Water Temp Dewpoint Dewpoint Depression Visibility Wind Speed Wind Dir Waves Ship Positions

America

Owner: ET Yacht, LLC, San Diego, CA. More information available from US FCC via Universal Licensing System and Coast Guard Vessel Documentation Center.

Last reported at 2016-Sep-29 23:29 UTC. Time now 2016-Sep-29 23:56 UTC.
Position N 32°01' W 081°01'.

Length 42 m; draft 3.5 m.

Type: Sailing vessel. MMSI: 367375550.

Date/timePositionNaut miles runAvg speedWind from/ knotsBaromVisibWave heightAir tempDewpointWater temp
2016-Sep-29 23:29N 32°01' W 081°01'0 0.0
2016-Sep-29 21:32N 32°01' W 081°01'0 0.0
2016-Sep-29 20:33N 32°01' W 081°01'0 0.0
2016-Sep-29 19:33N 32°01' W 081°01'0 0.0
2016-Sep-29 16:33N 32°01' W 081°01'0 0.0
2016-Sep-29 15:33N 32°01' W 081°01'0 0.0
2016-Sep-29 14:33N 32°01' W 081°01'4 4.0
2016-Sep-29 13:33N 31°57' W 081°00'  
2016-Sep-23 06:34N 34°41' W 076°40'3 1.3
2016-Sep-23 04:33N 34°43' W 076°40'0 0.0
2016-Sep-23 03:33N 34°43' W 076°40'0 0.0
2016-Sep-22 04:31N 34°43' W 076°40'0 0.0
2016-Sep-22 03:31N 34°43' W 076°40'0 0.0
2016-Sep-22 00:32N 34°43' W 076°40'0 0.0
2016-Sep-21 23:32N 34°43' W 076°40'4 4.5
2016-Sep-21 22:33N 34°39' W 076°41'4 1.5
2016-Sep-21 19:32N 34°43' W 076°40'0 0.0
2016-Sep-21 16:31N 34°43' W 076°40'16 2.4
2016-Sep-21 09:33N 34°27' W 076°34'9 8.6
2016-Sep-21 08:33N 34°29' W 076°24'147 6.7
2016-Sep-20 10:33N 36°54' W 075°57'  
Track history (hours):
 
Tides and Currents Weather Stations Pressure Air Temp Water Temp Dewpoint Dewpoint Depression Visibility Wind Speed Wind Dir Waves Ship Positions

America

Owner: ET Yacht, LLC, San Diego, CA. More information available from US FCC via Universal Licensing System and Coast Guard Vessel Documentation Center.

Last reported at 2016-Sep-29 23:29 UTC. Time now 2016-Sep-29 23:56 UTC.
Position N 32°01' W 081°01'.

Length 42 m; draft 3.5 m.

Type: Sailing vessel. MMSI: 367375550.

Date/timePositionNaut miles runAvg speedWind from/ knotsBaromVisibWave heightAir tempDewpointWater temp
2016-Sep-29 23:29N 32°01' W 081°01'0 0.0
2016-Sep-29 21:32N 32°01' W 081°01'0 0.0
2016-Sep-29 20:33N 32°01' W 081°01'0 0.0
2016-Sep-29 19:33N 32°01' W 081°01'0 0.0
2016-Sep-29 16:33N 32°01' W 081°01'0 0.0
2016-Sep-29 15:33N 32°01' W 081°01'0 0.0
2016-Sep-29 14:33N 32°01' W 081°01'4 4.0
2016-Sep-29 13:33N 31°57' W 081°00'  
2016-Sep-23 06:34N 34°41' W 076°40'3 1.3
2016-Sep-23 04:33N 34°43' W 076°40'0 0.0
2016-Sep-23 03:33N 34°43' W 076°40'0 0.0
2016-Sep-22 04:31N 34°43' W 076°40'0 0.0
2016-Sep-22 03:31N 34°43' W 076°40'0 0.0
2016-Sep-22 00:32N 34°43' W 076°40'0 0.0
2016-Sep-21 23:32N 34°43' W 076°40'4 4.5
2016-Sep-21 22:33N 34°39' W 076°41'4 1.5
2016-Sep-21 19:32N 34°43' W 076°40'0 0.0
2016-Sep-21 16:31N 34°43' W 076°40'16 2.4
2016-Sep-21 09:33N 34°27' W 076°34'9 8.6
2016-Sep-21 08:33N 34°29' W 076°24'147 6.7
2016-Sep-20 10:33N 36°54' W 075°57'  

Dump ship's entire track history